Time;durP1;ratioP1;P1;durP2;ratioP2;P2;SDS_P1;SDS_P2;PMS_P1;PMS_P2;Temp;Humidity;BMP_temperature;BMP_pressure;BME280_temperature;BME280_humidity;BME280_pressure;Samples;Min_cycle;Max_cycle;Signal;HPM_P1;HPM_P2
2022/06/08 00:03:04;;;;;;;1.98;1.25;;;15.00;99.90;;;;;;6253607;28;20051;-82
2022/06/08 00:06:06;;;;;;;4.13;1.20;;;14.90;99.90;;;;;;6253119;28;20259;-83
2022/06/08 00:09:08;;;;;;;4.22;1.50;;;14.90;99.90;;;;;;6252898;28;20203;-83
2022/06/08 00:12:12;;;;;;;2.13;1.27;;;14.90;99.90;;;;;;6252235;28;20133;-83
2022/06/08 00:15:15;;;;;;;2.10;1.17;;;14.80;99.90;;;;;;6253611;28;20124;-85
2022/06/08 00:18:16;;;;;;;4.25;1.30;;;14.70;99.90;;;;;;6252762;28;20081;-82
2022/06/08 00:21:19;;;;;;;6.35;1.55;;;14.70;99.90;;;;;;6251242;28;20127;-84
2022/06/08 00:24:20;;;;;;;2.53;1.40;;;14.60;99.90;;;;;;6240937;28;20033;-82
2022/06/08 00:27:24;;;;;;;2.97;1.40;;;14.60;99.90;;;;;;6248905;28;20054;-83
2022/06/08 00:30:26;;;;;;;3.30;1.23;;;14.60;99.90;;;;;;6252348;28;20118;-81
2022/06/08 00:33:28;;;;;;;5.63;1.20;;;14.60;99.90;;;;;;6252375;28;20136;-82
2022/06/08 00:36:29;;;;;;;6.82;1.75;;;14.60;99.90;;;;;;6249591;28;20096;-82
2022/06/08 00:39:31;;;;;;;5.57;1.67;;;14.60;99.90;;;;;;6248448;28;20053;-84
2022/06/08 00:42:35;;;;;;;2.00;1.33;;;14.40;99.90;;;;;;6250342;28;20097;-84
2022/06/08 00:45:37;;;;;;;3.33;1.55;;;14.60;99.90;;;;;;6250769;28;20136;-83
2022/06/08 00:48:53;;;;;;;5.63;2.20;;;14.60;99.90;;;;;;6250821;28;20049;-82
2022/06/08 00:51:56;;;;;;;3.13;1.88;;;14.60;99.90;;;;;;6251327;28;20045;-83
2022/06/08 00:55:01;;;;;;;4.32;1.65;;;14.50;99.90;;;;;;6252271;28;20048;-84
2022/06/08 00:58:07;;;;;;;8.95;1.90;;;14.50;99.90;;;;;;6252315;28;20493;-81
2022/06/08 01:01:09;;;;;;;4.18;1.63;;;14.50;99.90;;;;;;6253134;28;20049;-81
2022/06/08 01:04:12;;;;;;;3.47;1.45;;;14.40;99.90;;;;;;6252048;28;20116;-84
2022/06/08 01:07:20;;;;;;;4.65;1.45;;;14.40;99.90;;;;;;6252933;28;20057;-83
2022/06/08 01:10:25;;;;;;;5.55;1.20;;;14.30;99.90;;;;;;6252090;28;20045;-84
2022/06/08 01:13:31;;;;;;;2.97;1.85;;;14.30;99.90;;;;;;6252526;28;20045;-83
2022/06/08 01:16:33;;;;;;;6.25;1.15;;;14.30;99.90;;;;;;6252626;28;20063;-84
2022/06/08 01:19:35;;;;;;;2.55;1.75;;;14.20;99.90;;;;;;6251709;28;20045;-84
2022/06/08 01:22:40;;;;;;;5.03;1.73;;;14.20;99.90;;;;;;6251480;28;20563;-82
2022/06/08 01:26:10;;;;;;;3.17;1.58;;;14.10;99.90;;;;;;6251940;28;20055;-82
2022/06/08 01:29:21;;;;;;;3.60;1.60;;;14.10;99.90;;;;;;6255318;28;20053;-82
2022/06/08 01:32:29;;;;;;;6.05;1.17;;;14.10;99.90;;;;;;6256077;28;20042;-81
2022/06/08 01:35:38;;;;;;;14.05;2.25;;;14.00;99.90;;;;;;6256001;28;20105;-83
2022/06/08 01:38:54;;;;;;;2.63;1.50;;;14.00;99.90;;;;;;6254880;28;20061;-83
2022/06/08 01:42:27;;;;;;;2.47;1.73;;;13.90;99.90;;;;;;6254401;28;20517;-82
2022/06/08 01:45:47;;;;;;;5.57;1.73;;;14.00;99.90;;;;;;6238078;28;20049;-84
2022/06/08 01:49:05;;;;;;;3.97;1.85;;;14.20;99.90;;;;;;6253121;28;20513;-83
2022/06/08 01:52:19;;;;;;;11.13;1.45;;;14.20;99.90;;;;;;6252547;28;20041;-83
2022/06/08 01:55:32;;;;;;;3.58;1.73;;;14.20;99.90;;;;;;6252576;28;20050;-84
2022/06/08 01:58:43;;;;;;;2.20;1.55;;;14.10;99.90;;;;;;6252039;28;20500;-83
2022/06/08 02:01:51;;;;;;;12.05;4.10;;;14.10;99.90;;;;;;6253655;28;20053;-84
2022/06/08 02:04:57;;;;;;;2.95;1.75;;;14.10;99.90;;;;;;6257641;28;20493;-84
2022/06/08 02:08:05;;;;;;;2.55;1.52;;;14.10;99.90;;;;;;6256847;28;20539;-84
2022/06/08 02:11:14;;;;;;;3.25;1.40;;;14.00;99.90;;;;;;6255757;28;20128;-84
2022/06/08 02:14:20;;;;;;;1.70;1.30;;;13.90;99.90;;;;;;6256332;28;20048;-83
2022/06/08 02:17:29;;;;;;;6.47;1.90;;;13.90;99.90;;;;;;6257409;28;20054;-83
2022/06/08 02:20:37;;;;;;;1.77;1.10;;;13.80;99.90;;;;;;6256576;28;20056;-83
2022/06/08 02:23:44;;;;;;;6.80;1.00;;;13.70;99.90;;;;;;6256766;28;20050;-83
2022/06/08 02:26:53;;;;;;;7.50;1.20;;;13.60;99.90;;;;;;6256659;28;20037;-83
2022/06/08 02:30:00;;;;;;;3.05;2.28;;;13.60;99.90;;;;;;6256840;28;20045;-84
2022/06/08 02:36:30;;;;;;;3.35;1.60;;;13.70;99.90;;;;;;6256647;28;20417;-84
2022/06/08 02:39:36;;;;;;;4.00;1.33;;;13.70;99.90;;;;;;6255898;28;20063;-84
2022/06/08 02:42:43;;;;;;;5.53;1.73;;;13.60;99.90;;;;;;6256806;28;20095;-84
2022/06/08 02:45:48;;;;;;;3.85;1.65;;;13.50;99.90;;;;;;6257011;28;20060;-83
2022/06/08 02:48:49;;;;;;;9.40;1.55;;;13.50;99.90;;;;;;6257605;28;20060;-83
2022/06/08 02:51:52;;;;;;;2.03;1.27;;;13.50;99.90;;;;;;6257537;28;20046;-83
2022/06/08 02:54:55;;;;;;;6.68;1.67;;;13.50;99.90;;;;;;6257286;28;20057;-84
2022/06/08 02:58:02;;;;;;;2.53;2.15;;;13.50;99.90;;;;;;6257099;28;20041;-84
2022/06/08 03:01:12;;;;;;;5.90;1.92;;;13.50;99.90;;;;;;6257021;28;20059;-82
2022/06/08 03:04:19;;;;;;;4.45;1.77;;;13.50;99.90;;;;;;6257240;28;20049;-84
2022/06/08 03:07:27;;;;;;;2.70;1.77;;;13.50;99.90;;;;;;6258056;28;20045;-84
2022/06/08 03:10:35;;;;;;;3.33;1.88;;;13.50;99.90;;;;;;6257089;28;20068;-84
2022/06/08 03:13:44;;;;;;;2.97;1.05;;;13.50;99.90;;;;;;6257682;28;20055;-84
2022/06/08 03:16:54;;;;;;;4.60;1.35;;;13.50;99.90;;;;;;6258289;28;20053;-84
2022/06/08 03:19:56;;;;;;;2.72;1.30;;;13.40;99.90;;;;;;6258354;28;20049;-84
2022/06/08 03:22:58;;;;;;;5.95;1.83;;;13.40;99.90;;;;;;6257564;28;20052;-83
2022/06/08 03:26:00;;;;;;;2.33;1.48;;;13.40;99.90;;;;;;6257759;28;20041;-84
2022/06/08 03:29:03;;;;;;;2.13;1.48;;;13.30;99.90;;;;;;6258950;28;20056;-84
2022/06/08 03:32:06;;;;;;;3.20;1.80;;;13.40;99.90;;;;;;6257984;28;20071;-83
2022/06/08 03:35:12;;;;;;;4.18;2.05;;;13.40;99.90;;;;;;6280662;23;20048;-84
2022/06/08 03:38:21;;;;;;;9.27;1.55;;;13.40;99.90;;;;;;6256881;28;20041;-84
2022/06/08 03:41:23;;;;;;;5.20;1.85;;;13.40;99.90;;;;;;6267243;28;20076;-82
2022/06/08 03:44:30;;;;;;;4.60;2.53;;;13.60;99.90;;;;;;6259545;28;20124;-84
2022/06/08 03:47:37;;;;;;;3.90;1.73;;;13.60;99.90;;;;;;6257058;28;20049;-83
2022/06/08 03:50:44;;;;;;;4.07;1.70;;;13.80;99.90;;;;;;6258067;28;20519;-82
2022/06/08 03:53:49;;;;;;;3.60;1.48;;;13.90;99.90;;;;;;6255675;28;20045;-85
2022/06/08 03:56:55;;;;;;;3.92;1.48;;;13.90;99.90;;;;;;6253432;28;20060;-85
2022/06/08 04:00:00;;;;;;;10.07;1.85;;;14.00;99.90;;;;;;6252414;28;20045;-85
2022/06/08 04:03:02;;;;;;;5.68;1.85;;;14.10;99.90;;;;;;6264828;28;20045;-85
2022/06/08 04:06:05;;;;;;;3.42;1.50;;;14.20;99.90;;;;;;6251686;28;20059;-84
2022/06/08 04:09:07;;;;;;;6.15;1.27;;;14.30;99.90;;;;;;6252087;28;20460;-85
2022/06/08 04:12:11;;;;;;;3.45;2.03;;;14.40;99.90;;;;;;6250901;28;20457;-85
2022/06/08 04:18:43;;;;;;;1.73;1.05;;;14.50;99.90;;;;;;6249827;28;20049;-85
2022/06/08 04:21:45;;;;;;;2.45;1.30;;;14.60;99.90;;;;;;6249476;28;20750;-85
2022/06/08 04:24:47;;;;;;;1.67;0.90;;;14.70;99.80;;;;;;6249117;28;20057;-85
2022/06/08 04:27:49;;;;;;;6.00;1.27;;;14.70;99.70;;;;;;6248390;28;20045;-86
2022/06/08 04:30:53;;;;;;;2.03;0.93;;;14.70;99.60;;;;;;6249280;28;20049;-84
2022/06/08 04:33:55;;;;;;;4.68;1.35;;;14.90;99.50;;;;;;6249648;28;20047;-85
2022/06/08 04:36:57;;;;;;;2.58;1.00;;;15.00;99.20;;;;;;6250154;28;20099;-85
2022/06/08 04:39:58;;;;;;;5.18;0.90;;;15.20;99.10;;;;;;6247911;28;20500;-85
2022/06/08 04:43:00;;;;;;;7.15;2.33;;;15.60;98.80;;;;;;6247670;28;20052;-85
2022/06/08 04:46:05;;;;;;;1.02;0.70;;;16.50;97.90;;;;;;6251993;28;20408;-85
2022/06/08 04:49:08;;;;;;;2.22;0.80;;;17.40;96.30;;;;;;6252116;28;20580;-86
2022/06/08 04:52:10;;;;;;;4.40;1.25;;;18.00;95.10;;;;;;6252412;28;20061;-85
2022/06/08 04:55:14;;;;;;;3.13;0.98;;;18.50;94.10;;;;;;6251852;28;20061;-86
2022/06/08 04:58:17;;;;;;;1.75;0.73;;;19.50;93.20;;;;;;6252115;28;20045;-86
2022/06/08 05:01:20;;;;;;;1.13;0.57;;;21.70;90.60;;;;;;6250915;28;20046;-86
2022/06/08 05:04:21;;;;;;;3.75;0.85;;;24.10;82.60;;;;;;6249683;28;20041;-83
2022/06/08 05:07:23;;;;;;;3.70;0.90;;;25.20;76.10;;;;;;6248490;28;20504;-83
2022/06/08 05:10:28;;;;;;;3.47;0.73;;;25.70;73.50;;;;;;6248799;28;20083;-83
2022/06/08 05:13:30;;;;;;;2.83;0.65;;;27.00;69.50;;;;;;6248993;28;20056;-83
2022/06/08 05:16:33;;;;;;;1.25;0.77;;;28.10;64.60;;;;;;6248284;28;20053;-84
2022/06/08 05:19:35;;;;;;;1.75;0.60;;;28.90;61.40;;;;;;6247530;28;20049;-84
2022/06/08 05:22:38;;;;;;;1.38;0.55;;;30.00;58.40;;;;;;6246995;28;20128;-84
2022/06/08 05:25:41;;;;;;;2.63;0.73;;;31.50;53.40;;;;;;6246926;28;20477;-84
2022/06/08 05:28:43;;;;;;;3.70;0.90;;;32.50;50.30;;;;;;6247359;28;20060;-83
2022/06/08 05:31:47;;;;;;;1.27;0.47;;;33.20;48.10;;;;;;6245916;28;20046;-85
2022/06/08 05:34:49;;;;;;;3.30;0.90;;;33.80;45.60;;;;;;6247090;28;20080;-84
2022/06/08 05:37:52;;;;;;;1.60;0.50;;;34.30;44.00;;;;;;6249310;28;20056;-85
2022/06/08 05:41:02;;;;;;;5.55;0.60;;;35.10;42.60;;;;;;6246932;28;20424;-84
2022/06/08 05:44:04;;;;;;;2.50;0.40;;;36.30;40.60;;;;;;6246581;28;20045;-85
2022/06/08 05:47:16;;;;;;;2.08;0.47;;;37.60;38.70;;;;;;6246439;28;20056;-85
2022/06/08 05:50:20;;;;;;;3.20;0.50;;;38.60;36.70;;;;;;6248861;28;20053;-85
2022/06/08 05:53:23;;;;;;;2.75;0.55;;;39.50;35.60;;;;;;6247983;28;20057;-85
2022/06/08 05:56:24;;;;;;;1.48;0.43;;;40.10;34.60;;;;;;6245941;28;20053;-84
2022/06/08 05:59:27;;;;;;;1.95;0.60;;;40.80;33.60;;;;;;6246924;28;20056;-84
2022/06/08 06:02:30;;;;;;;1.15;0.55;;;41.40;32.80;;;;;;6246793;28;20060;-84
2022/06/08 06:05:33;;;;;;;5.43;0.85;;;41.60;32.30;;;;;;6246618;28;20041;-84
2022/06/08 06:08:35;;;;;;;2.88;0.70;;;41.90;31.70;;;;;;6246748;28;20519;-84
2022/06/08 06:11:37;;;;;;;3.00;0.45;;;42.30;31.30;;;;;;6246391;28;20057;-84
2022/06/08 06:14:39;;;;;;;6.78;0.70;;;42.50;30.90;;;;;;6248247;28;20481;-84
2022/06/08 06:17:42;;;;;;;4.30;0.55;;;42.50;30.40;;;;;;6246695;28;20476;-85
2022/06/08 06:20:44;;;;;;;0.75;0.30;;;42.70;30.40;;;;;;6247185;28;20046;-84
2022/06/08 06:23:51;;;;;;;1.25;0.30;;;43.20;30.00;;;;;;6247055;28;20081;-86
2022/06/08 06:30:27;;;;;;;4.07;0.50;;;40.20;31.80;;;;;;6248620;28;20048;-86
2022/06/08 06:33:30;;;;;;;2.28;0.57;;;36.20;35.80;;;;;;6245965;28;20049;-86
2022/06/08 06:36:32;;;;;;;2.53;0.50;;;33.40;38.90;;;;;;6238699;28;20049;-85
2022/06/08 06:43:07;;;;;;;3.65;0.47;;;30.00;44.70;;;;;;6251848;28;20041;-85
2022/06/08 06:46:11;;;;;;;2.90;0.40;;;28.80;47.40;;;;;;6234762;28;20048;-85
2022/06/08 06:49:29;;;;;;;3.10;0.40;;;28.10;48.80;;;;;;6226706;28;20049;-86
2022/06/08 06:52:33;;;;;;;3.50;0.50;;;27.40;50.30;;;;;;6227432;28;20045;-88
2022/06/08 06:55:36;;;;;;;6.50;0.85;;;27.00;51.60;;;;;;6225374;28;20046;-87
2022/06/08 06:58:49;;;;;;;2.13;0.77;;;26.50;53.10;;;;;;6226114;28;20439;-86
2022/06/08 07:01:51;;;;;;;2.58;0.80;;;26.20;54.70;;;;;;6226324;28;20050;-87
2022/06/08 07:05:15;;;;;;;1.02;0.32;;;26.00;55.60;;;;;;6226480;28;20042;-88
2022/06/08 07:08:18;;;;;;;5.05;0.88;;;25.90;56.80;;;;;;6250243;28;20041;-84
2022/06/08 07:11:43;;;;;;;8.88;0.63;;;25.90;57.00;;;;;;6255243;28;20120;-88
2022/06/08 07:26:18;;;;;;;4.20;0.60;;;25.50;59.10;;;;;;6132379;28;20064;-88
2022/06/08 07:29:29;;;;;;;2.50;0.50;;;25.60;58.60;;;;;;6221652;28;20497;-88
2022/06/08 07:32:59;;;;;;;6.13;0.85;;;25.70;57.40;;;;;;6250493;28;20580;-87
2022/06/08 07:39:19;;;;;;;3.08;1.45;;;25.80;59.30;;;;;;6260151;28;20569;-87
2022/06/08 07:42:37;;;;;;;3.47;0.30;;;26.00;58.10;;;;;;6259052;28;20050;-88
2022/06/08 07:45:39;;;;;;;5.65;0.52;;;26.20;57.40;;;;;;6250555;28;20077;-90
2022/06/08 07:52:20;;;;;;;0.77;0.30;;;26.60;54.10;;;;;;6250189;28;20045;-88
2022/06/08 07:56:09;;;;;;;4.68;0.60;;;26.60;54.10;;;;;;6249799;28;20176;-87
2022/06/08 07:59:31;;;;;;;10.35;3.00;;;26.60;53.50;;;;;;6233222;28;20057;-88
2022/06/08 08:02:44;;;;;;;3.00;0.70;;;26.70;55.30;;;;;;6238021;28;20096;-89
2022/06/08 08:05:47;;;;;;;3.80;1.15;;;26.70;55.10;;;;;;6250675;28;20045;-83
2022/06/08 08:09:15;;;;;;;6.63;2.28;;;26.80;55.20;;;;;;6236523;28;20051;-86
2022/06/08 08:12:27;;;;;;;1.97;0.50;;;26.90;55.40;;;;;;6250657;28;20239;-87
2022/06/08 08:15:35;;;;;;;4.07;0.85;;;27.10;54.90;;;;;;6249513;28;20061;-86
2022/06/08 08:18:53;;;;;;;8.18;0.60;;;27.10;54.80;;;;;;6236691;28;20507;-86
2022/06/08 08:21:56;;;;;;;;;;;27.10;54.40;;;;;;6240629;28;20049;-86
2022/06/08 08:25:01;;;;;;;3.13;0.47;;;27.30;54.70;;;;;;6249955;28;19925;-87
2022/06/08 08:28:04;;;;;;;1.48;0.63;;;27.50;53.80;;;;;;6248857;28;20056;-87
2022/06/08 08:34:22;;;;;;;3.08;0.40;;;27.50;53.00;;;;;;6237823;28;20644;-86
2022/06/08 08:37:24;;;;;;;7.05;1.00;;;27.50;53.10;;;;;;6247097;28;20091;-86
2022/06/08 08:40:44;;;;;;;1.85;0.50;;;27.60;52.90;;;;;;6250218;28;20046;-86
2022/06/08 08:43:50;;;;;;;0.93;0.20;;;27.60;51.30;;;;;;6249941;28;20056;-86
2022/06/08 08:47:00;;;;;;;2.58;0.52;;;27.50;51.80;;;;;;6250856;28;20046;-84
2022/06/08 08:50:15;;;;;;;6.63;0.60;;;27.30;52.40;;;;;;6232171;28;20092;-85
2022/06/08 08:53:23;;;;;;;4.00;0.70;;;27.20;51.40;;;;;;6242063;28;20049;-84
2022/06/08 08:56:35;;;;;;;1.30;0.35;;;27.30;51.90;;;;;;6239805;28;20108;-86
2022/06/08 08:59:59;;;;;;;3.35;1.00;;;27.60;50.80;;;;;;6248053;28;20061;-85
2022/06/08 09:03:21;;;;;;;5.13;0.70;;;27.80;50.90;;;;;;6250094;28;20053;-86
2022/06/08 09:06:25;;;;;;;2.00;0.35;;;28.00;50.20;;;;;;6246811;28;20045;-85
2022/06/08 09:09:31;;;;;;;2.35;0.52;;;28.30;49.80;;;;;;6276363;28;20025;-85
2022/06/08 09:12:33;;;;;;;6.20;0.93;;;28.60;49.60;;;;;;6262593;28;20076;-84
2022/06/08 09:15:59;;;;;;;3.20;0.60;;;28.80;48.20;;;;;;6248009;28;20504;-85
2022/06/08 09:19:23;;;;;;;1.70;0.38;;;29.10;47.90;;;;;;6247177;28;20072;-87
2022/06/08 09:22:29;;;;;;;5.88;0.80;;;29.00;48.00;;;;;;6251171;28;20045;-84
2022/06/08 09:25:34;;;;;;;3.83;0.57;;;28.80;47.70;;;;;;6255814;28;20037;-86
2022/06/08 09:28:38;;;;;;;4.95;0.80;;;28.90;47.20;;;;;;6267492;28;20045;-86
2022/06/08 09:31:42;;;;;;;1.52;0.50;;;28.60;47.40;;;;;;6247098;28;20057;-85
2022/06/08 09:34:54;;;;;;;12.45;2.42;;;28.30;47.70;;;;;;6248643;28;20056;-85
2022/06/08 09:38:03;;;;;;;2.75;0.52;;;27.90;49.50;;;;;;6248009;28;20061;-85
2022/06/08 09:41:18;;;;;;;4.95;0.65;;;27.80;49.00;;;;;;6226261;28;20050;-85
2022/06/08 09:44:37;;;;;;;2.38;0.60;;;27.80;49.50;;;;;;6230328;28;20061;-86
2022/06/08 09:51:45;;;;;;;4.18;0.70;;;28.10;49.10;;;;;;6171463;28;20118;-85
2022/06/08 09:55:02;;;;;;;4.85;0.90;;;28.40;50.80;;;;;;6173514;28;20418;-86
2022/06/08 09:58:17;;;;;;;4.40;0.43;;;28.90;49.30;;;;;;6222639;28;20046;-85
2022/06/08 10:01:29;;;;;;;1.85;0.30;;;29.10;48.20;;;;;;6223609;28;20112;-85
2022/06/08 10:04:45;;;;;;;2.17;0.50;;;29.50;46.90;;;;;;6222131;28;20058;-86
2022/06/08 10:08:10;;;;;;;2.95;0.38;;;30.00;45.60;;;;;;6235640;28;20081;-87
2022/06/08 10:15:22;;;;;;;0.75;0.20;;;32.40;41.70;;;;;;6214367;28;20073;-85
2022/06/08 10:18:34;;;;;;;4.18;0.93;;;32.60;39.90;;;;;;6246786;28;20428;-84
2022/06/08 10:21:45;;;;;;;1.88;0.43;;;31.90;40.20;;;;;;6248108;28;20060;-87
2022/06/08 10:24:53;;;;;;;2.67;0.40;;;30.90;40.60;;;;;;6251496;28;20050;-85
2022/06/08 10:28:36;;;;;;;3.58;0.55;;;30.50;42.60;;;;;;6252145;28;20045;-86
2022/06/08 10:31:45;;;;;;;5.32;0.60;;;30.60;41.90;;;;;;6251395;28;20059;-84
2022/06/08 10:34:53;;;;;;;3.72;0.45;;;30.90;41.20;;;;;;6250293;28;20049;-85
2022/06/08 10:38:44;;;;;;;1.40;0.50;;;31.00;39.00;;;;;;6251597;28;20045;-88
2022/06/08 10:45:52;;;;;;;3.60;0.32;;;30.90;39.80;;;;;;6249583;28;20416;-85
2022/06/08 10:48:56;;;;;;;1.98;0.77;;;30.80;38.80;;;;;;6224256;28;20053;-85
2022/06/08 10:52:15;;;;;;;3.33;0.30;;;30.70;38.20;;;;;;6251138;28;20053;-85
2022/06/08 10:55:41;;;;;;;1.90;0.30;;;30.60;37.70;;;;;;6252111;28;20046;-85
2022/06/08 10:58:55;;;;;;;3.85;0.40;;;30.30;37.10;;;;;;6250747;28;20056;-85
2022/06/08 11:02:28;;;;;;;7.20;0.50;;;29.90;37.50;;;;;;6251110;28;20405;-85
2022/06/08 11:05:44;;;;;;;4.97;0.60;;;29.90;38.80;;;;;;6253804;28;20045;-85
2022/06/08 11:08:51;;;;;;;3.80;0.50;;;30.10;38.30;;;;;;6246873;28;20053;-85
2022/06/08 11:12:03;;;;;;;2.47;0.95;;;30.00;38.40;;;;;;6251405;28;20440;-85
2022/06/08 11:15:17;;;;;;;5.07;0.60;;;29.80;39.40;;;;;;6251170;28;20042;-85
2022/06/08 11:18:25;;;;;;;2.40;0.57;;;29.70;38.80;;;;;;6251675;28;20053;-85
2022/06/08 11:21:45;;;;;;;4.40;0.47;;;29.80;39.30;;;;;;6251104;28;20171;-83
2022/06/08 11:24:50;;;;;;;2.20;0.45;;;29.80;39.40;;;;;;6250711;28;20056;-83
2022/06/08 11:28:25;;;;;;;2.25;0.30;;;29.80;39.60;;;;;;6252906;28;20053;-84
2022/06/08 11:31:48;;;;;;;2.00;0.40;;;29.70;40.30;;;;;;6252683;28;20045;-83
2022/06/08 11:35:13;;;;;;;2.50;0.30;;;29.60;40.40;;;;;;6252761;28;20048;-84
2022/06/08 11:38:27;;;;;;;1.15;0.20;;;29.70;40.30;;;;;;6259189;28;20045;-85
2022/06/08 11:41:38;;;;;;;3.75;0.40;;;29.90;36.90;;;;;;6245979;28;20046;-83
2022/06/08 11:44:44;;;;;;;5.13;0.65;;;30.10;36.50;;;;;;6232305;28;20056;-83
2022/06/08 11:47:53;;;;;;;3.72;0.60;;;30.20;37.00;;;;;;6232918;28;20401;-85
2022/06/08 11:50:58;;;;;;;1.20;0.45;;;30.00;36.60;;;;;;6234138;28;20044;-84
2022/06/08 11:54:17;;;;;;;3.90;0.55;;;30.00;37.00;;;;;;6232817;28;20050;-83
2022/06/08 11:57:21;;;;;;;1.50;0.30;;;29.90;37.50;;;;;;6231566;28;20638;-83
2022/06/08 12:00:33;;;;;;;1.73;0.20;;;29.80;36.60;;;;;;6226475;28;20068;-86
2022/06/08 12:03:40;;;;;;;5.10;0.73;;;29.50;37.50;;;;;;6223899;28;20559;-84
2022/06/08 12:06:46;;;;;;;;;;;29.40;38.00;;;;;;6232397;28;20048;-84
2022/06/08 12:10:33;;;;;;;3.15;0.57;;;29.50;38.30;;;;;;6249712;28;19936;-85
2022/06/08 12:13:46;;;;;;;2.53;0.20;;;29.80;38.70;;;;;;6252130;28;20057;-85
2022/06/08 12:17:03;;;;;;;3.72;0.95;;;29.80;37.20;;;;;;6247748;28;20042;-84
2022/06/08 12:20:30;;;;;;;1.50;0.32;;;29.60;37.80;;;;;;6248555;28;20099;-84
2022/06/08 12:32:29;;;;;;;5.05;0.75;;;29.00;38.60;;;;;;6215595;28;20061;-87
2022/06/08 12:35:38;;;;;;;3.17;0.30;;;28.80;38.50;;;;;;6240144;28;20049;-87
2022/06/08 12:39:01;;;;;;;3.95;0.40;;;28.70;38.40;;;;;;6240326;28;20048;-85
2022/06/08 12:42:24;;;;;;;2.88;0.45;;;28.70;38.70;;;;;;6232992;28;20063;-83
2022/06/08 12:45:30;;;;;;;1.58;0.43;;;28.70;37.40;;;;;;6230088;28;20046;-83
2022/06/08 12:48:46;;;;;;;1.83;0.50;;;28.60;38.30;;;;;;6231117;28;20155;-83
2022/06/08 12:51:52;;;;;;;4.93;0.80;;;28.60;38.40;;;;;;6226547;28;20057;-82
2022/06/08 12:54:54;;;;;;;0.88;0.22;;;28.60;38.80;;;;;;6226027;28;20053;-82
2022/06/08 12:57:56;;;;;;;1.55;0.28;;;28.50;38.60;;;;;;6229566;28;20052;-83
2022/06/08 13:00:58;;;;;;;1.33;0.20;;;28.40;39.40;;;;;;6239355;28;20052;-84
2022/06/08 13:04:03;;;;;;;3.50;0.63;;;28.30;39.70;;;;;;6254160;28;20072;-84
2022/06/08 13:07:07;;;;;;;2.58;0.30;;;28.20;39.40;;;;;;6260659;28;20049;-84
2022/06/08 13:10:09;;;;;;;5.68;0.50;;;28.30;40.10;;;;;;6251970;28;20063;-83
2022/06/08 13:13:19;;;;;;;3.28;0.73;;;28.30;38.90;;;;;;6256495;28;20055;-85
2022/06/08 13:16:25;;;;;;;2.03;0.40;;;28.30;39.20;;;;;;6258434;28;20049;-85
2022/06/08 13:20:04;;;;;;;2.88;0.28;;;28.30;39.90;;;;;;6245536;28;20386;-86
2022/06/08 13:23:08;;;;;;;1.63;0.40;;;28.10;40.70;;;;;;6247990;28;20541;-84
2022/06/08 13:30:29;;;;;;;2.28;0.30;;;28.00;41.40;;;;;;6247023;28;20132;-84
2022/06/08 13:34:13;;;;;;;6.32;0.95;;;27.90;42.70;;;;;;6248752;28;20098;-85
2022/06/08 13:37:25;;;;;;;7.45;0.68;;;27.90;43.20;;;;;;6248012;28;20045;-84
2022/06/08 13:44:30;;;;;;;4.15;0.70;;;27.10;48.70;;;;;;6173393;28;20052;-84
2022/06/08 13:47:35;;;;;;;2.45;0.70;;;26.60;49.30;;;;;;6205500;28;20100;-84
2022/06/08 13:50:40;;;;;;;9.25;0.98;;;26.30;49.90;;;;;;6222266;28;20108;-85
2022/06/08 13:53:49;;;;;;;3.42;1.13;;;26.10;51.90;;;;;;6223188;28;20111;-85
2022/06/08 14:00:45;;;;;;;4.60;0.65;;;25.60;55.60;;;;;;6227232;28;20053;-85
2022/06/08 14:04:11;;;;;;;3.15;0.57;;;25.20;56.80;;;;;;6228898;28;20153;-85
2022/06/08 14:13:58;;;;;;;6.18;0.82;;;24.10;63.70;;;;;;6252174;28;20053;-85
2022/06/08 14:17:01;;;;;;;4.15;0.65;;;24.00;64.80;;;;;;6251781;28;20053;-85
2022/06/08 14:20:07;;;;;;;7.60;1.67;;;23.90;65.60;;;;;;6252035;28;20042;-84
2022/06/08 14:23:20;;;;;;;7.15;0.98;;;23.90;67.40;;;;;;6251815;28;20060;-84
2022/06/08 14:26:26;;;;;;;8.05;0.90;;;23.50;70.10;;;;;;6251586;28;20051;-84
2022/06/08 14:32:49;;;;;;;12.90;1.23;;;22.90;75.60;;;;;;6251633;28;20108;-83
2022/06/08 14:35:54;;;;;;;6.03;1.33;;;22.70;76.50;;;;;;6251410;28;20056;-83
2022/06/08 14:38:57;;;;;;;7.82;0.80;;;22.50;77.30;;;;;;6249148;28;20053;-83
2022/06/08 14:42:03;;;;;;;3.20;1.35;;;22.40;77.80;;;;;;6251368;28;20073;-84
2022/06/08 14:45:06;;;;;;;2.95;1.00;;;22.30;78.70;;;;;;6252031;28;20088;-84
2022/06/08 14:48:16;;;;;;;2.85;0.70;;;22.20;79.00;;;;;;6252030;28;20052;-84
2022/06/08 14:51:20;;;;;;;11.65;2.50;;;22.00;80.50;;;;;;6251413;28;20049;-84
2022/06/08 14:54:25;;;;;;;5.65;1.13;;;21.90;82.10;;;;;;6251255;28;20099;-84
2022/06/08 14:57:32;;;;;;;6.38;1.60;;;21.80;84.20;;;;;;6251318;28;20049;-85
2022/06/08 15:00:34;;;;;;;2.27;0.70;;;21.60;87.00;;;;;;6251407;28;20471;-85
2022/06/08 15:03:37;;;;;;;2.05;0.80;;;21.20;88.40;;;;;;6250717;28;20627;-84
2022/06/08 15:06:39;;;;;;;6.30;1.02;;;20.90;90.30;;;;;;6250572;28;20076;-84
2022/06/08 15:09:41;;;;;;;9.02;2.15;;;20.60;91.10;;;;;;6249715;28;20057;-83
2022/06/08 15:12:48;;;;;;;7.18;1.27;;;20.40;92.10;;;;;;6251422;28;20053;-84
2022/06/08 15:15:49;;;;;;;6.45;1.38;;;20.30;92.60;;;;;;6251560;28;20067;-83
2022/06/08 15:18:51;;;;;;;4.10;1.20;;;20.10;93.30;;;;;;6253631;28;20123;-83
2022/06/08 15:21:53;;;;;;;2.92;1.08;;;20.00;93.90;;;;;;6253929;28;20493;-82
2022/06/08 15:24:55;;;;;;;3.95;1.35;;;20.00;94.50;;;;;;6252692;28;20042;-84
2022/06/08 15:28:02;;;;;;;5.13;1.25;;;20.00;94.60;;;;;;6253755;28;20045;-83
2022/06/08 15:31:04;;;;;;;3.63;1.50;;;20.00;94.90;;;;;;6253298;28;20049;-83
2022/06/08 15:34:12;;;;;;;6.68;1.15;;;20.00;95.20;;;;;;6255899;28;20144;-84
2022/06/08 15:37:18;;;;;;;7.10;1.33;;;20.00;95.50;;;;;;6242113;28;20047;-83
2022/06/08 15:40:23;;;;;;;4.47;0.98;;;19.90;95.60;;;;;;6276438;23;20407;-81
2022/06/08 15:43:27;;;;;;;8.00;0.98;;;19.80;95.90;;;;;;6251341;28;20511;-82
2022/06/08 15:46:29;;;;;;;5.70;1.33;;;19.80;96.00;;;;;;6251425;28;20049;-82
2022/06/08 15:49:32;;;;;;;5.07;1.25;;;19.80;96.00;;;;;;6236058;28;20053;-82
2022/06/08 15:52:34;;;;;;;2.13;1.23;;;19.80;96.10;;;;;;6227870;28;20104;-83
2022/06/08 15:55:39;;;;;;;3.78;1.38;;;19.80;96.30;;;;;;6226222;28;20060;-84
2022/06/08 15:58:47;;;;;;;6.72;1.20;;;19.60;96.40;;;;;;6223371;28;20050;-82
2022/06/08 16:01:49;;;;;;;8.80;1.20;;;19.60;96.70;;;;;;6200728;28;20058;-82
2022/06/08 16:04:51;;;;;;;13.73;2.38;;;19.80;96.90;;;;;;6227237;28;20060;-83
2022/06/08 16:07:54;;;;;;;7.18;2.55;;;19.70;97.10;;;;;;6227308;28;20049;-84
2022/06/08 16:10:56;;;;;;;3.75;1.42;;;19.70;97.30;;;;;;6230640;28;20067;-82
2022/06/08 16:13:59;;;;;;;4.53;1.38;;;19.80;97.20;;;;;;6227571;28;20505;-82
2022/06/08 16:17:00;;;;;;;11.38;2.03;;;19.60;97.00;;;;;;6228740;28;20065;-83
2022/06/08 16:20:03;;;;;;;3.42;1.70;;;19.80;97.30;;;;;;6229666;28;20045;-82
2022/06/08 16:23:07;;;;;;;8.52;1.48;;;19.90;97.20;;;;;;6236268;28;20045;-83
2022/06/08 16:26:09;;;;;;;3.35;1.25;;;20.00;97.00;;;;;;6230644;28;20044;-83
2022/06/08 16:29:12;;;;;;;7.82;1.55;;;20.10;96.80;;;;;;6216522;28;20053;-82
2022/06/08 16:32:15;;;;;;;6.07;1.10;;;20.20;96.70;;;;;;6229264;28;20118;-82
2022/06/08 16:35:19;;;;;;;4.95;1.60;;;20.30;96.40;;;;;;6228758;28;20054;-83
2022/06/08 16:38:21;;;;;;;2.78;1.15;;;20.30;96.40;;;;;;6227107;28;20038;-82
2022/06/08 16:41:23;;;;;;;4.60;0.95;;;20.40;96.30;;;;;;6227857;28;20584;-83
2022/06/08 16:44:26;;;;;;;4.53;1.30;;;20.40;96.10;;;;;;6227092;28;20068;-82
2022/06/08 16:47:28;;;;;;;4.60;1.48;;;20.30;96.00;;;;;;6221955;28;20604;-82
2022/06/08 16:50:31;;;;;;;3.95;1.10;;;20.40;96.00;;;;;;6228419;28;20045;-83
2022/06/08 16:53:32;;;;;;;4.25;1.05;;;20.40;95.80;;;;;;6228305;28;20045;-83
2022/06/08 16:59:54;;;;;;;3.58;1.10;;;20.30;95.90;;;;;;6206331;28;20049;-83
2022/06/08 17:02:56;;;;;;;1.58;0.80;;;20.20;96.20;;;;;;6227330;28;20121;-82
2022/06/08 17:05:59;;;;;;;6.38;2.00;;;20.20;96.20;;;;;;6226161;28;20053;-82
2022/06/08 17:09:01;;;;;;;4.85;1.08;;;20.10;96.20;;;;;;6224652;28;20065;-83
2022/06/08 17:12:06;;;;;;;4.68;0.98;;;20.00;96.30;;;;;;6225034;28;20568;-82
2022/06/08 17:15:11;;;;;;;4.15;1.02;;;19.90;96.30;;;;;;6226300;28;20060;-83
2022/06/08 17:18:13;;;;;;;5.80;1.20;;;19.80;96.60;;;;;;6237379;28;20046;-82
2022/06/08 17:21:15;;;;;;;5.93;1.17;;;19.70;96.80;;;;;;6232850;28;20056;-83
2022/06/08 17:24:17;;;;;;;5.45;0.82;;;19.60;97.00;;;;;;6227867;28;20049;-83
2022/06/08 17:27:19;;;;;;;3.72;0.88;;;19.50;96.90;;;;;;6226656;28;20512;-84
2022/06/08 17:30:22;;;;;;;5.53;1.08;;;19.40;96.60;;;;;;6218120;28;20045;-83
2022/06/08 17:33:25;;;;;;;2.03;0.80;;;19.30;96.70;;;;;;6226697;28;20052;-84
2022/06/08 17:36:26;;;;;;;1.55;0.70;;;19.30;96.70;;;;;;6226379;28;20042;-83
2022/06/08 17:39:29;;;;;;;1.73;0.70;;;19.30;96.70;;;;;;6225933;28;20811;-84
2022/06/08 17:42:30;;;;;;;1.27;0.60;;;19.40;96.50;;;;;;6226624;28;20046;-83